createdAt,value
2018-07-19T00:01:01.807Z,51.72
2018-07-19T00:03:06.590Z,51.67
2018-07-19T00:05:11.245Z,51.62
2018-07-19T00:07:15.876Z,51.54
2018-07-19T00:09:20.572Z,51.67
2018-07-19T00:11:25.266Z,51.36
2018-07-19T00:13:29.972Z,52.01
2018-07-19T00:15:34.622Z,52.46
2018-07-19T00:17:39.384Z,52.95
2018-07-19T00:19:43.666Z,53.14
2018-07-19T00:21:48.380Z,53.17
2018-07-19T00:23:53.167Z,52.97
2018-07-19T00:25:58.329Z,52.61
2018-07-19T00:28:03.107Z,52.23
2018-07-19T00:30:07.966Z,52.59
2018-07-19T00:32:12.595Z,52.91
2018-07-19T00:34:17.283Z,52.88
2018-07-19T00:36:22.286Z,52.87
2018-07-19T00:38:27.140Z,53.61
2018-07-19T00:40:31.910Z,53.59
2018-07-19T00:42:36.609Z,54.36
2018-07-19T00:44:41.390Z,54.20
2018-07-19T00:46:46.911Z,54.47
2018-07-19T00:48:51.578Z,54.92
2018-07-19T00:50:56.249Z,54.40
2018-07-19T00:53:00.902Z,54.34
2018-07-19T00:55:05.680Z,54.37
2018-07-19T00:57:10.370Z,54.91
2018-07-19T00:59:15.050Z,54.71
2018-07-19T01:01:19.743Z,54.79
2018-07-19T01:03:24.412Z,54.85
2018-07-19T01:05:29.098Z,55.23
2018-07-19T01:07:33.817Z,55.46
2018-07-19T01:09:38.477Z,54.87
2018-07-19T01:11:43.121Z,56.27
2018-07-19T01:13:47.813Z,56.52
2018-07-19T01:15:52.586Z,56.82
2018-07-19T01:17:57.344Z,57.89
2018-07-19T01:20:02.076Z,57.24
2018-07-19T01:22:06.828Z,58.51
2018-07-19T01:24:11.494Z,58.81
2018-07-19T01:26:16.174Z,58.77
2018-07-19T01:28:20.819Z,58.30
2018-07-19T01:30:25.564Z,59.12
2018-07-19T01:32:30.278Z,59.11
2018-07-19T01:34:34.969Z,59.32
2018-07-19T01:36:39.603Z,59.01
2018-07-19T01:38:44.317Z,59.96
2018-07-19T01:40:48.974Z,59.75
2018-07-19T01:42:53.761Z,59.50
2018-07-19T01:44:58.595Z,59.02
2018-07-19T01:47:03.369Z,59.14
2018-07-19T01:49:08.014Z,59.19
2018-07-19T01:51:12.716Z,58.99
2018-07-19T01:53:17.359Z,58.33
2018-07-19T01:55:22.023Z,58.30
2018-07-19T01:57:26.747Z,58.33
2018-07-19T01:59:31.380Z,58.64
2018-07-19T02:01:35.985Z,58.78
2018-07-19T02:03:40.709Z,58.64
2018-07-19T02:05:45.503Z,58.73
2018-07-19T02:07:50.197Z,59.77
2018-07-19T02:09:54.885Z,59.90
2018-07-19T02:11:59.688Z,59.93
2018-07-19T02:14:04.425Z,59.26
2018-07-19T02:16:09.066Z,59.84
2018-07-19T02:18:13.759Z,59.12
2018-07-19T02:20:18.411Z,59.71
2018-07-19T02:22:23.114Z,59.03
2018-07-19T02:24:27.803Z,59.39
2018-07-19T02:26:32.492Z,59.74
2018-07-19T02:28:37.321Z,59.47
2018-07-19T02:30:42.029Z,59.69
2018-07-19T02:32:46.703Z,60.54
2018-07-19T02:34:51.412Z,60.43
2018-07-19T02:36:56.073Z,60.66
2018-07-19T02:39:00.979Z,60.23
2018-07-19T02:41:05.689Z,60.44
2018-07-19T02:43:10.328Z,60.53
2018-07-19T02:45:15.056Z,60.54
2018-07-19T02:47:19.762Z,60.56
2018-07-19T02:49:24.442Z,60.29
2018-07-19T02:51:29.062Z,60.16
2018-07-19T02:53:33.690Z,60.11
2018-07-19T02:55:38.357Z,60.79
2018-07-19T02:57:43.025Z,60.24
2018-07-19T02:59:47.726Z,60.98
2018-07-19T03:01:52.365Z,60.37
2018-07-19T03:03:57.006Z,60.68
2018-07-19T03:06:01.679Z,60.76
2018-07-19T03:08:06.361Z,61.15
2018-07-19T03:10:11.154Z,60.78
2018-07-19T03:12:15.803Z,61.15
2018-07-19T03:14:20.529Z,60.90
2018-07-19T03:16:25.171Z,60.89
2018-07-19T03:18:29.821Z,61.32
2018-07-19T03:20:34.541Z,62.03
2018-07-19T03:22:39.378Z,61.43
2018-07-19T03:24:44.164Z,61.11
2018-07-19T03:26:48.871Z,61.25
2018-07-19T03:28:53.554Z,62.09
2018-07-19T03:30:58.287Z,61.55
2018-07-19T03:33:02.906Z,61.86
2018-07-19T03:35:07.540Z,62.02
2018-07-19T03:37:12.190Z,61.96
2018-07-19T03:39:16.852Z,61.62
2018-07-19T03:41:21.521Z,61.91
2018-07-19T03:43:26.182Z,62.43
2018-07-19T03:45:30.845Z,62.29
2018-07-19T03:47:35.496Z,62.09
2018-07-19T03:49:40.162Z,62.40
2018-07-19T03:51:44.854Z,61.74
2018-07-19T03:53:49.506Z,61.57
2018-07-19T03:55:53.849Z,61.58
2018-07-19T03:57:58.492Z,61.78
2018-07-19T04:00:03.171Z,61.63
2018-07-19T04:02:07.856Z,62.26
2018-07-19T04:04:12.502Z,61.69
2018-07-19T04:06:17.140Z,62.19
2018-07-19T04:08:21.771Z,61.98
2018-07-19T04:10:26.425Z,62.16
2018-07-19T04:12:31.073Z,61.92
2018-07-19T04:14:35.843Z,62.21
2018-07-19T04:16:40.560Z,62.39
2018-07-19T04:18:45.266Z,62.07
2018-07-19T04:20:50.029Z,61.28
2018-07-19T04:22:55.470Z,62.21
2018-07-19T04:25:00.200Z,62.31
2018-07-19T04:27:04.933Z,62.21
2018-07-19T04:29:09.823Z,62.34
2018-07-19T04:31:14.581Z,62.15
2018-07-19T04:33:19.312Z,62.39
2018-07-19T04:35:24.012Z,61.53
2018-07-19T04:37:30.478Z,61.73
2018-07-19T04:39:35.197Z,61.39
2018-07-19T04:41:39.885Z,61.14
2018-07-19T04:43:44.672Z,61.45
2018-07-19T04:45:49.311Z,61.24
2018-07-19T04:47:54.062Z,60.97
2018-07-19T04:49:59.865Z,60.94
2018-07-19T04:52:04.709Z,60.77
2018-07-19T04:54:09.383Z,60.29
2018-07-19T04:56:13.907Z,59.58
2018-07-19T04:58:18.705Z,60.12
2018-07-19T05:00:23.447Z,60.33
2018-07-19T05:02:28.116Z,59.42
2018-07-19T05:04:32.854Z,59.60
2018-07-19T05:06:37.830Z,58.94
2018-07-19T05:08:42.692Z,59.09
2018-07-19T05:10:47.774Z,58.39
2018-07-19T05:12:52.455Z,58.42
2018-07-19T05:14:57.373Z,57.83
2018-07-19T05:17:02.177Z,57.74
2018-07-19T05:19:07.033Z,58.09
2018-07-19T05:21:12.324Z,58.16
2018-07-19T05:23:17.124Z,57.41
2018-07-19T05:25:21.987Z,57.43
2018-07-19T05:27:26.657Z,56.71
2018-07-19T05:29:31.351Z,57.36
2018-07-19T05:31:37.123Z,56.62
2018-07-19T05:33:41.856Z,56.66
2018-07-19T05:35:47.093Z,55.97
2018-07-19T05:37:51.791Z,55.80
2018-07-19T05:39:57.034Z,55.89
2018-07-19T05:42:01.909Z,56.20
2018-07-19T05:44:07.088Z,55.81
2018-07-19T05:46:11.882Z,55.78
2018-07-19T05:48:16.828Z,55.91
2018-07-19T05:50:21.693Z,55.69
2018-07-19T05:52:26.569Z,55.33
2018-07-19T05:54:31.580Z,54.78
2018-07-19T05:56:36.880Z,54.97
2018-07-19T05:58:41.655Z,54.17
2018-07-19T06:00:46.430Z,53.01
2018-07-19T06:02:51.248Z,53.25
2018-07-19T06:04:56.100Z,52.74
2018-07-19T06:07:00.826Z,51.98
2018-07-19T06:09:09.159Z,52.02
2018-07-19T06:11:13.981Z,51.64
2018-07-19T06:13:19.296Z,51.82
2018-07-19T06:15:24.061Z,51.48
2018-07-19T06:17:28.928Z,50.23
2018-07-19T06:19:33.751Z,50.06
2018-07-19T06:21:38.501Z,50.51
2018-07-19T06:23:43.271Z,51.23
2018-07-19T06:25:48.100Z,51.24
2018-07-19T06:27:53.148Z,51.38
2018-07-19T06:29:58.350Z,50.90
2018-07-19T06:32:03.133Z,50.66
2018-07-19T06:34:07.913Z,51.31
2018-07-19T06:36:12.869Z,50.43
2018-07-19T06:38:17.846Z,50.88
2018-07-19T06:40:22.534Z,50.67
2018-07-19T06:42:27.300Z,50.95
2018-07-19T06:44:32.121Z,50.35
2018-07-19T06:46:36.976Z,49.60
2018-07-19T06:48:41.902Z,50.11
2018-07-19T06:50:46.758Z,50.85
2018-07-19T06:52:51.542Z,50.12
2018-07-19T06:54:56.310Z,50.17
2018-07-19T06:57:01.079Z,51.34
2018-07-19T06:59:05.837Z,51.54
2018-07-19T07:01:10.628Z,51.25
2018-07-19T07:03:15.478Z,49.44
2018-07-19T07:05:20.209Z,49.50
2018-07-19T07:07:25.003Z,49.71
2018-07-19T07:09:29.855Z,50.40
2018-07-19T07:11:34.792Z,50.21
2018-07-19T07:13:39.674Z,49.77
2018-07-19T07:15:44.508Z,49.19
2018-07-19T07:17:49.441Z,49.62
2018-07-19T07:19:54.284Z,48.84
2018-07-19T07:21:59.173Z,47.65
2018-07-19T07:24:04.027Z,47.25
2018-07-19T07:26:08.951Z,47.90
2018-07-19T07:28:13.877Z,48.13
2018-07-19T07:30:18.679Z,48.57
2018-07-19T07:32:23.516Z,48.19
2018-07-19T07:34:28.450Z,47.08
2018-07-19T07:36:33.330Z,47.09
2018-07-19T07:38:37.809Z,47.38
2018-07-19T07:40:42.695Z,47.08
2018-07-19T07:42:47.591Z,45.51
2018-07-19T07:44:52.439Z,46.33
2018-07-19T07:46:57.768Z,45.93
2018-07-19T07:49:02.573Z,46.02
2018-07-19T07:51:07.296Z,46.05
2018-07-19T07:53:12.052Z,45.51
2018-07-19T07:55:17.180Z,45.71
2018-07-19T07:57:21.957Z,45.03
2018-07-19T07:59:27.055Z,45.24
2018-07-19T08:01:31.876Z,43.78
2018-07-19T08:03:36.639Z,45.52
2018-07-19T08:05:41.408Z,44.69
2018-07-19T08:07:46.273Z,43.83
2018-07-19T08:09:51.234Z,45.07
2018-07-19T08:11:56.172Z,45.34
2018-07-19T08:14:01.006Z,44.58
2018-07-19T08:16:05.709Z,46.64
2018-07-19T08:18:10.510Z,45.25
2018-07-19T08:20:15.295Z,44.52
2018-07-19T08:22:20.032Z,44.33
2018-07-19T08:24:24.815Z,44.98
2018-07-19T08:26:29.623Z,45.04
2018-07-19T08:28:34.338Z,45.18
2018-07-19T08:30:39.223Z,45.51
2018-07-19T08:32:43.968Z,45.59
2018-07-19T08:34:48.819Z,45.77
2018-07-19T08:36:53.576Z,45.90
2018-07-19T08:38:58.388Z,45.74
2018-07-19T08:41:03.286Z,45.75
2018-07-19T08:43:07.850Z,45.46
2018-07-19T08:45:12.522Z,45.03
2018-07-19T08:47:17.250Z,45.49
2018-07-19T08:49:22.046Z,44.90
2018-07-19T08:51:26.928Z,44.82
2018-07-19T08:53:31.659Z,45.37
2018-07-19T08:55:36.468Z,44.70
2018-07-19T08:57:41.208Z,45.17
2018-07-19T08:59:45.913Z,45.06
2018-07-19T09:01:50.940Z,43.81
2018-07-19T09:03:55.404Z,45.18
2018-07-19T09:05:59.781Z,44.93
2018-07-19T09:08:04.584Z,45.22
2018-07-19T09:10:09.408Z,43.98
2018-07-19T09:12:14.468Z,43.91
2018-07-19T09:14:19.207Z,43.70
2018-07-19T09:18:37.694Z,44.29
2018-07-19T09:20:42.546Z,42.79
2018-07-19T09:22:47.302Z,43.44
2018-07-19T09:24:51.976Z,41.71
2018-07-19T09:26:56.736Z,43.01
2018-07-19T09:29:01.425Z,42.79
2018-07-19T09:31:06.228Z,42.78
2018-07-19T09:33:11.042Z,41.44
2018-07-19T09:35:15.817Z,41.22
2018-07-19T09:37:20.773Z,39.21
2018-07-19T09:39:25.709Z,40.39
2018-07-19T09:41:30.456Z,40.22
2018-07-19T09:43:35.302Z,39.21
2018-07-19T09:45:40.076Z,40.32
2018-07-19T09:47:44.776Z,40.41
2018-07-19T09:49:49.483Z,40.02
2018-07-19T09:51:54.310Z,39.92
2018-07-19T09:53:59.483Z,40.18
2018-07-19T09:56:04.179Z,41.03
2018-07-19T09:58:09.064Z,38.78
2018-07-19T10:00:18.229Z,38.43
2018-07-19T10:02:23.521Z,38.11
2018-07-19T10:04:29.473Z,38.32
2018-07-19T10:06:36.693Z,37.91
2018-07-19T10:08:41.517Z,37.26
2018-07-19T10:10:46.523Z,36.96
2018-07-19T10:12:51.544Z,36.82
2018-07-19T10:14:56.563Z,35.78
2018-07-19T10:17:01.675Z,37.08
2018-07-19T10:19:06.695Z,37.53
2018-07-19T10:21:11.592Z,36.37
2018-07-19T10:23:16.605Z,36.18
2018-07-19T10:25:21.635Z,36.67
2018-07-19T10:27:26.642Z,35.17
2018-07-19T10:29:32.605Z,33.56
2018-07-19T10:31:37.981Z,33.54
2018-07-19T10:33:43.235Z,34.06
2018-07-19T10:35:48.879Z,33.45
2018-07-19T10:37:54.178Z,33.26
2018-07-19T10:39:59.175Z,33.22
2018-07-19T10:42:04.774Z,32.85
2018-07-19T10:44:10.277Z,31.60
2018-07-19T10:46:15.919Z,31.46
2018-07-19T10:48:20.728Z,32.25
2018-07-19T10:50:26.656Z,34.15
2018-07-19T10:52:31.954Z,34.92
2018-07-19T10:54:36.840Z,35.49
2018-07-19T10:56:41.721Z,34.68
2018-07-19T10:58:46.570Z,35.54
2018-07-19T11:00:51.742Z,33.13
2018-07-19T11:02:56.607Z,33.01
2018-07-19T11:05:01.345Z,33.67
2018-07-19T11:07:06.583Z,33.73
2018-07-19T11:09:11.452Z,33.22
2018-07-19T11:11:16.508Z,32.19
2018-07-19T11:13:21.606Z,32.83
2018-07-19T11:15:26.495Z,31.67
2018-07-19T11:17:31.677Z,32.54
2018-07-19T11:19:36.616Z,32.45
2018-07-19T11:21:41.373Z,33.74
2018-07-19T11:23:46.922Z,33.45
2018-07-19T11:25:52.151Z,31.36
2018-07-19T11:27:56.925Z,32.16
2018-07-19T11:30:01.627Z,32.06
2018-07-19T11:32:06.976Z,32.48
2018-07-19T11:34:11.713Z,30.78
2018-07-19T11:36:16.994Z,31.36
2018-07-19T11:38:22.333Z,30.82
2018-07-19T11:40:28.189Z,31.26
2018-07-19T11:42:33.208Z,31.34
2018-07-19T11:44:38.244Z,30.58
2018-07-19T11:46:43.429Z,31.93
2018-07-19T11:48:48.946Z,31.36
2018-07-19T11:50:54.943Z,30.62
2018-07-19T11:52:59.894Z,30.74
2018-07-19T11:55:04.588Z,31.01
2018-07-19T11:57:09.703Z,32.64
2018-07-19T11:59:14.852Z,31.52
2018-07-19T12:01:20.166Z,30.78
2018-07-19T12:03:25.221Z,30.58
2018-07-19T12:05:30.010Z,30.63
2018-07-19T12:07:34.803Z,30.63
2018-07-19T12:09:39.442Z,31.37
2018-07-19T12:11:44.244Z,31.11
2018-07-19T12:13:49.098Z,32.28
2018-07-19T12:15:53.914Z,32.18
2018-07-19T12:17:58.591Z,32.21
2018-07-19T12:20:03.329Z,31.22
2018-07-19T12:22:08.049Z,30.15
2018-07-19T12:24:12.676Z,30.83
2018-07-19T12:26:17.325Z,30.17
2018-07-19T12:28:22.028Z,31.32
2018-07-19T12:30:26.682Z,31.08
2018-07-19T12:32:31.360Z,31.14
2018-07-19T12:34:36.405Z,30.29
2018-07-19T12:36:41.258Z,30.90
2018-07-19T12:38:46.021Z,30.74
2018-07-19T12:40:51.142Z,31.27
2018-07-19T12:42:55.922Z,31.05
2018-07-19T12:45:00.788Z,31.52
2018-07-19T12:47:06.192Z,31.37
2018-07-19T12:49:11.571Z,31.32
2018-07-19T12:51:16.377Z,31.47
2018-07-19T12:53:21.129Z,31.50
2018-07-19T12:55:26.602Z,32.29
2018-07-19T12:57:31.415Z,32.99
2018-07-19T12:59:36.414Z,30.55
2018-07-19T13:01:41.010Z,30.09
2018-07-19T13:03:45.595Z,30.87
2018-07-19T13:05:50.229Z,30.91
2018-07-19T13:07:54.889Z,30.59
2018-07-19T13:09:59.467Z,30.17
2018-07-19T13:12:04.145Z,29.47
2018-07-19T13:14:10.301Z,28.35
2018-07-19T13:16:15.674Z,28.95
2018-07-19T13:18:20.418Z,28.84
2018-07-19T13:20:24.696Z,28.86
2018-07-19T13:22:29.605Z,29.09
2018-07-19T13:24:34.400Z,29.12
2018-07-19T13:26:39.354Z,29.37
2018-07-19T13:28:44.126Z,28.85
2018-07-19T13:30:48.818Z,28.75
2018-07-19T13:32:53.447Z,28.93
2018-07-19T13:34:58.061Z,28.89
2018-07-19T13:37:03.292Z,28.38
2018-07-19T13:39:09.670Z,28.02
2018-07-19T13:41:15.300Z,28.56
2018-07-19T13:43:20.367Z,29.11
2018-07-19T13:45:25.675Z,28.64
2018-07-19T13:47:30.612Z,27.53
2018-07-19T13:49:35.326Z,27.64
2018-07-19T13:51:40.444Z,28.01
2018-07-19T13:54:19.673Z,27.62
2018-07-19T13:56:27.864Z,27.54
2018-07-19T13:58:33.243Z,27.25
2018-07-19T14:00:38.195Z,28.06
2018-07-19T14:02:43.737Z,26.71
2018-07-19T14:04:48.631Z,26.71
2018-07-19T14:06:53.624Z,27.81
2018-07-19T14:08:58.588Z,27.76
2018-07-19T14:11:03.369Z,28.37
2018-07-19T14:13:08.195Z,27.04
2018-07-19T14:15:13.488Z,25.45
2018-07-19T14:17:18.483Z,25.92
2018-07-19T14:19:23.485Z,26.56
2018-07-19T14:21:28.456Z,26.03
2018-07-19T14:23:33.486Z,26.21
2018-07-19T14:25:38.611Z,25.95
2018-07-19T14:27:43.711Z,25.13
2018-07-19T14:29:48.641Z,26.39
2018-07-19T14:31:53.592Z,27.28
2018-07-19T14:33:58.605Z,26.57
2018-07-19T14:36:03.587Z,26.21
2018-07-19T14:38:08.669Z,26.30
2018-07-19T14:40:13.394Z,26.92
2018-07-19T14:42:18.206Z,27.48
2018-07-19T14:44:23.407Z,27.59
2018-07-19T14:46:28.356Z,26.62
2018-07-19T14:48:33.267Z,27.23
2018-07-19T14:50:37.855Z,26.53
2018-07-19T14:52:43.003Z,25.94
2018-07-19T14:54:47.842Z,26.65
2018-07-19T14:56:52.928Z,27.42
2018-07-19T14:58:57.936Z,27.13
2018-07-19T15:01:02.753Z,26.20
2018-07-19T15:03:07.869Z,26.74
2018-07-19T15:05:12.973Z,26.47
2018-07-19T15:07:17.765Z,26.54
2018-07-19T15:09:22.396Z,26.99
2018-07-19T15:11:27.156Z,27.08
2018-07-19T15:13:31.900Z,26.02
2018-07-19T15:15:36.579Z,26.75
2018-07-19T15:17:41.875Z,26.24
2018-07-19T15:19:47.081Z,26.06
2018-07-19T15:21:51.823Z,26.26
2018-07-19T15:23:57.526Z,26.55
2018-07-19T15:26:02.223Z,27.60
2018-07-19T15:28:06.957Z,27.72
2018-07-19T15:30:11.972Z,27.93
2018-07-19T15:32:17.143Z,27.78
2018-07-19T15:34:23.265Z,28.24
2018-07-19T15:36:27.920Z,28.31
2018-07-19T15:38:32.940Z,27.38
2018-07-19T15:40:38.289Z,27.46
2018-07-19T15:42:44.317Z,28.14
2018-07-19T15:44:49.654Z,26.95
2018-07-19T15:46:55.648Z,26.51
2018-07-19T15:49:00.548Z,25.26
2018-07-19T15:51:08.021Z,26.05
2018-07-19T15:53:13.644Z,25.54
2018-07-19T15:55:19.487Z,26.90
2018-07-19T15:57:24.458Z,25.80
2018-07-19T15:59:29.556Z,26.62
2018-07-19T16:01:34.707Z,25.94
2018-07-19T16:03:39.540Z,25.86
2018-07-19T16:05:44.252Z,27.04
2018-07-19T16:07:48.889Z,25.94
2018-07-19T16:09:53.523Z,27.48
2018-07-19T16:11:58.217Z,27.38
2018-07-19T16:14:02.890Z,27.18
2018-07-19T16:16:07.705Z,30.85
2018-07-19T16:18:12.401Z,34.53
2018-07-19T16:20:17.117Z,34.73
2018-07-19T16:22:21.834Z,32.76
2018-07-19T16:24:26.551Z,34.05
2018-07-19T16:26:31.294Z,32.52
2018-07-19T16:28:36.031Z,31.89
2018-07-19T16:30:40.636Z,33.07
2018-07-19T16:32:45.344Z,30.56
2018-07-19T16:34:50.670Z,30.92
2018-07-19T16:36:55.388Z,30.90
2018-07-19T16:39:00.180Z,32.62
2018-07-19T16:41:04.981Z,30.14
2018-07-19T16:43:09.831Z,29.95
2018-07-19T16:45:14.739Z,29.52
2018-07-19T16:47:19.517Z,30.19
2018-07-19T16:49:24.588Z,33.38
2018-07-19T16:51:29.974Z,31.96
2018-07-19T16:53:34.719Z,31.20
2018-07-19T16:55:39.465Z,28.89
2018-07-19T16:57:44.346Z,28.67
2018-07-19T16:59:49.236Z,31.50
2018-07-19T17:01:54.068Z,28.69
2018-07-19T17:03:58.946Z,29.36
2018-07-19T17:06:03.749Z,28.79
2018-07-19T17:08:08.549Z,31.41
2018-07-19T17:10:13.374Z,30.35
2018-07-19T17:12:18.147Z,31.47
2018-07-19T17:14:23.187Z,30.09
2018-07-19T17:16:27.948Z,29.43
2018-07-19T17:18:32.668Z,30.08
2018-07-19T17:20:37.994Z,31.02
2018-07-19T17:22:42.905Z,29.97
2018-07-19T17:24:47.983Z,30.02
2018-07-19T17:26:53.023Z,29.46
2018-07-19T17:28:58.883Z,27.93
2018-07-19T17:31:03.914Z,26.74
2018-07-19T17:33:09.055Z,25.67
2018-07-19T17:35:13.840Z,25.09
2018-07-19T17:37:18.800Z,26.17
2018-07-19T17:39:23.818Z,26.37
2018-07-19T17:41:28.675Z,25.65
2018-07-19T17:43:33.562Z,26.41
2018-07-19T17:45:38.385Z,27.18
2018-07-19T17:47:43.784Z,26.29
2018-07-19T17:49:48.818Z,25.40
2018-07-19T17:51:54.907Z,25.21
2018-07-19T17:54:00.155Z,26.04
2018-07-19T17:56:05.159Z,25.46
2018-07-19T17:58:09.959Z,25.71
2018-07-19T18:00:14.681Z,26.17
2018-07-19T18:02:19.517Z,26.83
2018-07-19T18:04:25.616Z,26.97
2018-07-19T18:06:33.346Z,25.22
2018-07-19T18:08:40.869Z,25.12
2018-07-19T18:10:46.689Z,26.31
2018-07-19T18:12:52.770Z,26.22
2018-07-19T18:17:21.594Z,24.80
2018-07-19T18:19:26.911Z,25.74
2018-07-19T18:21:31.828Z,25.11
2018-07-19T18:23:36.903Z,26.43
2018-07-19T18:25:41.779Z,27.89
2018-07-19T18:27:46.729Z,27.05
2018-07-19T18:29:52.710Z,28.07
2018-07-19T18:31:57.711Z,28.15
2018-07-19T18:34:02.802Z,27.90
2018-07-19T18:36:07.627Z,29.53
2018-07-19T18:38:12.444Z,28.86
2018-07-19T18:40:17.415Z,28.57
2018-07-19T18:42:22.186Z,29.35
2018-07-19T18:44:26.904Z,29.18
2018-07-19T18:46:32.233Z,29.44
2018-07-19T18:48:37.440Z,30.61
2018-07-19T18:50:42.302Z,30.37
2018-07-19T18:53:03.190Z,30.37
2018-07-19T18:55:14.938Z,30.58
2018-07-19T18:57:20.690Z,29.91
2018-07-19T18:59:25.735Z,30.93
2018-07-19T19:01:30.835Z,31.88
2018-07-19T19:03:35.760Z,31.95
2018-07-19T19:05:41.463Z,31.86
2018-07-19T19:07:45.911Z,32.21
2018-07-19T19:09:50.665Z,31.68
2018-07-19T19:11:55.981Z,33.01
2018-07-19T19:14:00.839Z,32.76
2018-07-19T19:16:05.939Z,32.80
2018-07-19T19:18:10.759Z,32.87
2018-07-19T19:20:15.454Z,33.02
2018-07-19T19:22:20.272Z,32.98
2018-07-19T19:24:25.166Z,33.02
2018-07-19T19:26:30.429Z,34.28
2018-07-19T19:28:36.036Z,33.29
2018-07-19T19:30:41.064Z,34.04
2018-07-19T19:32:45.972Z,34.57
2018-07-19T19:34:50.478Z,34.75
2018-07-19T19:36:55.387Z,35.65
2018-07-19T19:39:00.503Z,36.08
2018-07-19T19:41:06.371Z,35.51
2018-07-19T19:43:11.627Z,36.13
2018-07-19T19:45:16.847Z,36.36
2018-07-19T19:47:22.172Z,37.11
2018-07-19T19:49:27.590Z,37.50
2018-07-19T19:51:32.428Z,37.81
2018-07-19T19:53:37.522Z,37.41
2018-07-19T19:55:43.320Z,37.60
2018-07-19T19:57:48.155Z,38.59
2018-07-19T19:59:53.051Z,38.99
2018-07-19T20:01:58.714Z,38.71
2018-07-19T20:04:04.723Z,39.16
2018-07-19T20:06:10.928Z,39.93
2018-07-19T20:08:15.869Z,38.90
2018-07-19T20:10:20.718Z,39.83
2018-07-19T20:12:25.615Z,39.30
2018-07-19T20:14:30.442Z,40.24
2018-07-19T20:16:35.142Z,40.69
2018-07-19T20:18:39.888Z,40.29
2018-07-19T20:20:44.608Z,40.94
2018-07-19T20:22:49.636Z,41.66
2018-07-19T20:24:54.356Z,40.42
2018-07-19T20:26:59.221Z,41.24
2018-07-19T20:29:03.750Z,40.16
2018-07-19T20:31:09.337Z,40.69
2018-07-19T20:33:14.823Z,42.21
2018-07-19T20:35:19.777Z,41.25
2018-07-19T20:37:24.283Z,41.15
2018-07-19T20:39:29.186Z,42.32
2018-07-19T20:41:33.958Z,42.61
2018-07-19T20:43:38.357Z,42.89
2018-07-19T20:45:43.264Z,43.72
2018-07-19T20:47:48.128Z,42.52
2018-07-19T20:49:53.083Z,42.51
2018-07-19T20:51:57.995Z,43.64
2018-07-19T20:54:02.816Z,43.83
2018-07-19T20:56:07.652Z,43.63
2018-07-19T20:58:12.403Z,44.75
2018-07-19T21:00:17.143Z,44.93
2018-07-19T21:02:21.832Z,44.69
2018-07-19T21:04:26.537Z,44.69
2018-07-19T21:06:31.313Z,45.62
2018-07-19T21:08:36.155Z,45.06
2018-07-19T21:10:40.905Z,46.00
2018-07-19T21:12:45.675Z,45.67
2018-07-19T21:14:50.377Z,46.19
2018-07-19T21:16:55.551Z,46.96
2018-07-19T21:19:00.383Z,46.81
2018-07-19T21:21:05.185Z,47.04
2018-07-19T21:23:09.931Z,46.78
2018-07-19T21:25:14.590Z,47.49
2018-07-19T21:27:19.294Z,48.15
2018-07-19T21:31:39.652Z,47.28
2018-07-19T21:33:44.394Z,47.55
2018-07-19T21:35:49.139Z,47.84
2018-07-19T21:37:53.885Z,47.15
2018-07-19T21:39:58.635Z,46.92
2018-07-19T21:42:02.968Z,47.60
2018-07-19T21:44:08.162Z,46.79
2018-07-19T21:46:13.017Z,46.99
2018-07-19T21:48:17.421Z,47.55
2018-07-19T21:50:22.225Z,47.18
2018-07-19T21:52:26.898Z,47.82
2018-07-19T21:54:31.604Z,47.43
2018-07-19T21:56:36.233Z,48.29
2018-07-19T21:58:40.572Z,47.94
2018-07-19T22:01:21.762Z,47.70
2018-07-19T22:03:26.569Z,48.31
2018-07-19T22:05:31.276Z,48.14
2018-07-19T22:07:35.984Z,48.19
2018-07-19T22:09:40.658Z,48.69
2018-07-19T22:11:45.410Z,48.50
2018-07-19T22:13:50.132Z,48.25
2018-07-19T22:15:54.964Z,48.93
2018-07-19T22:17:59.722Z,48.50
2018-07-19T22:20:04.205Z,49.18
2018-07-19T22:22:08.932Z,48.75
2018-07-19T22:24:13.619Z,49.50
2018-07-19T22:26:18.375Z,48.85
2018-07-19T22:28:23.052Z,49.54
2018-07-19T22:30:27.778Z,49.70
2018-07-19T22:32:32.512Z,50.21
2018-07-19T22:34:37.232Z,49.97
2018-07-19T22:36:41.955Z,50.09
2018-07-19T22:38:46.815Z,49.97
2018-07-19T22:40:51.527Z,50.43
2018-07-19T22:42:56.243Z,50.54
2018-07-19T22:45:00.897Z,49.22
2018-07-19T22:47:05.613Z,50.50
2018-07-19T22:49:10.338Z,49.65
2018-07-19T22:51:15.055Z,49.11
2018-07-19T22:53:19.749Z,48.84
2018-07-19T22:55:24.497Z,48.99
2018-07-19T22:57:29.532Z,49.20
2018-07-19T22:59:34.366Z,49.85
2018-07-19T23:01:39.107Z,49.56
2018-07-19T23:03:43.780Z,49.36
2018-07-19T23:05:48.545Z,49.62
2018-07-19T23:07:53.221Z,49.98
2018-07-19T23:09:57.886Z,49.82
2018-07-19T23:12:02.517Z,49.45
2018-07-19T23:14:07.285Z,49.96
2018-07-19T23:16:11.624Z,49.95
2018-07-19T23:18:16.291Z,50.00
2018-07-19T23:20:20.967Z,49.50
2018-07-19T23:22:25.726Z,49.58
2018-07-19T23:24:30.479Z,49.74
2018-07-19T23:26:35.241Z,49.55
2018-07-19T23:28:40.061Z,49.87
2018-07-19T23:30:44.764Z,50.03
2018-07-19T23:32:49.246Z,49.54
2018-07-19T23:34:54.186Z,50.06
2018-07-19T23:37:03.705Z,49.67
2018-07-19T23:39:12.472Z,49.60
2018-07-19T23:41:21.254Z,49.54
2018-07-19T23:43:30.999Z,50.23
2018-07-19T23:45:40.457Z,50.01
2018-07-19T23:47:45.769Z,49.83
2018-07-19T23:49:50.384Z,50.21
2018-07-19T23:51:55.094Z,50.73
2018-07-19T23:53:59.728Z,50.57
2018-07-19T23:56:04.442Z,50.41
2018-07-19T23:58:09.074Z,50.03
